Terminal Aerodrome Forecast
Issued by NWS Bismarck, ND

Home | Current Version | Previous Version | Text Only | Print | Product List | Glossary Off
Versions: 1 2 3 4 5 6 7 8 9 10 11 12

864
FTUS43 KBIS 240521
TAFISN
TAF
KISN 240521Z 2406/2506 28005KT P6SM FEW060 SCT120
     FM241800 30013KT P6SM SCT060 SCT150
     FM250100 31007KT P6SM FEW060
     FM250300 09004KT P6SM SKC=

USA.gov is the U.S. government's official web portal to all federal, state and local government web resources and services.